首页
METAR-TAF:

METAR-TAF

机场 :

Tahlequah, 奧克拉荷馬州, 美国

纬度: 35-55-44N, 经度: 095-00-16W, 海拔: 266米

当前天气观测

该预报发布于20分钟前的22:15 UTC
风速6节,风向南转南东
温度 10°C
湿度 40%
气压 1030 hPa
能見度: 16.1公里
天空无云

METAR: KTQH 112215Z AUTO 15006KT 10SM CLR 10/M03 A3041 RMK AO2

时间: 16:35 (22:35 UTC)


TAF: 丢失

超过4000个机场的气象观测和天气预报(METAR&TAF报告)。

可查询的气象台以黄色和红色小点在地图上表示。

将鼠标移到小点上方,可查看气象台名称。

然后点击查看天气观测和预报。

如需切换地图:点击带黑十字的绿色按钮放大地图;点击带横线的绿色按钮缩小地图;或者点击绿色箭头查看邻近地区的地图。


METAR-TAF: